sensor_id;sensor_type;location;lat;lon;timestamp;temperature;humidity
8114;DHT22;4099;52.684;9.918;2024-01-15T00:04:38;1.10;99.90
8114;DHT22;4099;52.684;9.918;2024-01-15T00:09:39;1.10;99.90
8114;DHT22;4099;52.684;9.918;2024-01-15T00:14:42;1.10;99.90
8114;DHT22;4099;52.684;9.918;2024-01-15T00:19:44;1.20;99.90
8114;DHT22;4099;52.684;9.918;2024-01-15T00:24:46;1.20;99.90
8114;DHT22;4099;52.684;9.918;2024-01-15T00:29:49;1.10;99.90
8114;DHT22;4099;52.684;9.918;2024-01-15T00:34:52;1.10;99.90
8114;DHT22;4099;52.684;9.918;2024-01-15T00:39:54;1.20;99.90
8114;DHT22;4099;52.684;9.918;2024-01-15T00:44:57;1.20;99.90
8114;DHT22;4099;52.684;9.918;2024-01-15T00:49:58;1.20;99.90
8114;DHT22;4099;52.684;9.918;2024-01-15T00:55:00;1.10;99.90
8114;DHT22;4099;52.684;9.918;2024-01-15T01:00:05;1.10;99.90
8114;DHT22;4099;52.684;9.918;2024-01-15T01:05:07;1.00;99.90
8114;DHT22;4099;52.684;9.918;2024-01-15T01:10:09;1.10;99.90
8114;DHT22;4099;52.684;9.918;2024-01-15T01:15:12;1.00;99.90
8114;DHT22;4099;52.684;9.918;2024-01-15T01:20:14;1.00;99.90
8114;DHT22;4099;52.684;9.918;2024-01-15T01:25:16;1.10;99.90
8114;DHT22;4099;52.684;9.918;2024-01-15T01:30:19;1.20;99.90
8114;DHT22;4099;52.684;9.918;2024-01-15T01:35:20;1.20;99.90
8114;DHT22;4099;52.684;9.918;2024-01-15T01:40:22;1.20;99.90
8114;DHT22;4099;52.684;9.918;2024-01-15T01:45:25;1.20;99.90
8114;DHT22;4099;52.684;9.918;2024-01-15T01:50:27;1.20;99.90
8114;DHT22;4099;52.684;9.918;2024-01-15T01:55:31;1.20;99.90
8114;DHT22;4099;52.684;9.918;2024-01-15T02:00:35;1.30;99.90
8114;DHT22;4099;52.684;9.918;2024-01-15T02:05:39;1.30;99.90
8114;DHT22;4099;52.684;9.918;2024-01-15T02:10:41;1.30;99.90
8114;DHT22;4099;52.684;9.918;2024-01-15T02:15:44;1.30;99.90
8114;DHT22;4099;52.684;9.918;2024-01-15T02:20:46;1.30;99.90
8114;DHT22;4099;52.684;9.918;2024-01-15T02:25:49;1.30;99.90
8114;DHT22;4099;52.684;9.918;2024-01-15T02:30:51;1.40;99.90
8114;DHT22;4099;52.684;9.918;2024-01-15T02:35:52;1.40;99.90
8114;DHT22;4099;52.684;9.918;2024-01-15T02:40:55;1.30;99.90
8114;DHT22;4099;52.684;9.918;2024-01-15T02:45:57;1.20;99.90
8114;DHT22;4099;52.684;9.918;2024-01-15T02:50:59;1.20;99.90
8114;DHT22;4099;52.684;9.918;2024-01-15T02:56:03;1.10;99.90
8114;DHT22;4099;52.684;9.918;2024-01-15T03:07:05;1.10;99.90
8114;DHT22;4099;52.684;9.918;2024-01-15T03:12:08;1.20;99.90
8114;DHT22;4099;52.684;9.918;2024-01-15T03:17:10;1.10;99.90
8114;DHT22;4099;52.684;9.918;2024-01-15T03:22:12;1.10;99.90
8114;DHT22;4099;52.684;9.918;2024-01-15T03:27:18;1.10;99.90
8114;DHT22;4099;52.684;9.918;2024-01-15T03:32:20;1.20;99.90
8114;DHT22;4099;52.684;9.918;2024-01-15T03:37:22;1.30;99.90
8114;DHT22;4099;52.684;9.918;2024-01-15T03:42:25;1.30;99.90
8114;DHT22;4099;52.684;9.918;2024-01-15T03:47:27;1.30;99.90
8114;DHT22;4099;52.684;9.918;2024-01-15T03:52:28;1.30;99.90
8114;DHT22;4099;52.684;9.918;2024-01-15T03:57:31;1.30;99.90
8114;DHT22;4099;52.684;9.918;2024-01-15T04:02:33;1.20;99.90
8114;DHT22;4099;52.684;9.918;2024-01-15T04:07:35;1.10;99.90
8114;DHT22;4099;52.684;9.918;2024-01-15T04:12:38;1.20;99.90
8114;DHT22;4099;52.684;9.918;2024-01-15T04:17:39;1.20;99.90
8114;DHT22;4099;52.684;9.918;2024-01-15T04:22:41;1.20;99.90
8114;DHT22;4099;52.684;9.918;2024-01-15T04:27:44;1.30;99.90
8114;DHT22;4099;52.684;9.918;2024-01-15T04:32:46;1.40;99.90
8114;DHT22;4099;52.684;9.918;2024-01-15T04:37:48;1.40;99.90
8114;DHT22;4099;52.684;9.918;2024-01-15T04:42:51;1.50;99.90
8114;DHT22;4099;52.684;9.918;2024-01-15T04:47:52;1.50;99.90
8114;DHT22;4099;52.684;9.918;2024-01-15T04:52:54;1.50;99.90
8114;DHT22;4099;52.684;9.918;2024-01-15T04:57:57;1.50;99.90
8114;DHT22;4099;52.684;9.918;2024-01-15T05:02:59;1.30;99.90
8114;DHT22;4099;52.684;9.918;2024-01-15T05:08:00;1.30;99.90
8114;DHT22;4099;52.684;9.918;2024-01-15T05:13:04;1.20;99.90
8114;DHT22;4099;52.684;9.918;2024-01-15T05:18:05;1.10;99.90
8114;DHT22;4099;52.684;9.918;2024-01-15T05:23:07;1.20;99.90
8114;DHT22;4099;52.684;9.918;2024-01-15T05:28:10;1.20;99.90
8114;DHT22;4099;52.684;9.918;2024-01-15T05:33:12;1.20;99.90
8114;DHT22;4099;52.684;9.918;2024-01-15T05:38:14;1.30;99.90
8114;DHT22;4099;52.684;9.918;2024-01-15T05:43:17;1.30;99.90
8114;DHT22;4099;52.684;9.918;2024-01-15T05:48:19;1.30;99.90
8114;DHT22;4099;52.684;9.918;2024-01-15T05:53:20;1.30;99.90
8114;DHT22;4099;52.684;9.918;2024-01-15T05:58:23;1.30;99.90
8114;DHT22;4099;52.684;9.918;2024-01-15T06:03:26;1.30;99.90
8114;DHT22;4099;52.684;9.918;2024-01-15T06:08:30;1.30;99.90
8114;DHT22;4099;52.684;9.918;2024-01-15T06:13:33;1.00;99.90
8114;DHT22;4099;52.684;9.918;2024-01-15T06:18:34;1.00;99.90
8114;DHT22;4099;52.684;9.918;2024-01-15T06:23:37;1.00;99.90
8114;DHT22;4099;52.684;9.918;2024-01-15T06:28:40;1.00;99.90
8114;DHT22;4099;52.684;9.918;2024-01-15T06:33:41;1.10;99.90
8114;DHT22;4099;52.684;9.918;2024-01-15T06:38:43;1.10;99.90
8114;DHT22;4099;52.684;9.918;2024-01-15T06:44:05;1.10;99.90
8114;DHT22;4099;52.684;9.918;2024-01-15T06:49:44;1.10;99.90
8114;DHT22;4099;52.684;9.918;2024-01-15T06:54:56;1.20;99.90
8114;DHT22;4099;52.684;9.918;2024-01-15T07:00:18;1.20;99.90
8114;DHT22;4099;52.684;9.918;2024-01-15T07:06:01;1.30;99.90
8114;DHT22;4099;52.684;9.918;2024-01-15T07:11:51;1.30;99.90
8114;DHT22;4099;52.684;9.918;2024-01-15T07:17:10;1.30;99.90
8114;DHT22;4099;52.684;9.918;2024-01-15T07:23:05;1.30;99.90
8114;DHT22;4099;52.684;9.918;2024-01-15T07:28:49;1.30;99.90
8114;DHT22;4099;52.684;9.918;2024-01-15T07:34:24;1.30;99.90
8114;DHT22;4099;52.684;9.918;2024-01-15T07:39:57;1.30;99.90
8114;DHT22;4099;52.684;9.918;2024-01-15T07:45:27;1.30;99.90
8114;DHT22;4099;52.684;9.918;2024-01-15T07:56:57;1.30;99.90
8114;DHT22;4099;52.684;9.918;2024-01-15T08:08:18;1.40;99.90
8114;DHT22;4099;52.684;9.918;2024-01-15T08:14:10;1.50;99.90
8114;DHT22;4099;52.684;9.918;2024-01-15T08:20:14;1.40;99.90
8114;DHT22;4099;52.684;9.918;2024-01-15T08:32:02;1.20;99.90
8114;DHT22;4099;52.684;9.918;2024-01-15T08:37:37;0.90;99.90
8114;DHT22;4099;52.684;9.918;2024-01-15T08:42:55;0.70;99.90
8114;DHT22;4099;52.684;9.918;2024-01-15T08:48:23;0.70;99.90
8114;DHT22;4099;52.684;9.918;2024-01-15T08:53:48;0.70;99.90
8114;DHT22;4099;52.684;9.918;2024-01-15T08:59:05;0.70;99.90
8114;DHT22;4099;52.684;9.918;2024-01-15T09:16:22;0.70;99.90
8114;DHT22;4099;52.684;9.918;2024-01-15T09:21:25;0.80;99.90
8114;DHT22;4099;52.684;9.918;2024-01-15T09:26:27;0.80;99.90
8114;DHT22;4099;52.684;9.918;2024-01-15T09:31:28;0.90;99.90
8114;DHT22;4099;52.684;9.918;2024-01-15T09:36:31;1.00;99.90
8114;DHT22;4099;52.684;9.918;2024-01-15T09:41:33;1.00;99.90
8114;DHT22;4099;52.684;9.918;2024-01-15T09:46:35;1.10;99.90
8114;DHT22;4099;52.684;9.918;2024-01-15T09:51:39;1.20;99.90
8114;DHT22;4099;52.684;9.918;2024-01-15T09:56:41;1.30;99.90
8114;DHT22;4099;52.684;9.918;2024-01-15T10:01:43;1.30;99.90
8114;DHT22;4099;52.684;9.918;2024-01-15T10:06:47;1.30;99.90
8114;DHT22;4099;52.684;9.918;2024-01-15T10:11:52;1.40;99.90
8114;DHT22;4099;52.684;9.918;2024-01-15T10:16:54;1.40;99.90
8114;DHT22;4099;52.684;9.918;2024-01-15T10:21:58;1.50;99.90
8114;DHT22;4099;52.684;9.918;2024-01-15T10:27:05;1.50;99.90
8114;DHT22;4099;52.684;9.918;2024-01-15T10:32:07;1.60;99.90
8114;DHT22;4099;52.684;9.918;2024-01-15T10:37:11;1.60;99.90
8114;DHT22;4099;52.684;9.918;2024-01-15T10:42:12;1.70;99.90
8114;DHT22;4099;52.684;9.918;2024-01-15T10:47:14;1.70;99.90
8114;DHT22;4099;52.684;9.918;2024-01-15T10:52:18;1.80;99.90
8114;DHT22;4099;52.684;9.918;2024-01-15T10:57:21;1.80;99.90
8114;DHT22;4099;52.684;9.918;2024-01-15T11:02:24;1.90;99.90
8114;DHT22;4099;52.684;9.918;2024-01-15T11:07:30;1.90;99.90
8114;DHT22;4099;52.684;9.918;2024-01-15T11:12:32;1.90;99.90
8114;DHT22;4099;52.684;9.918;2024-01-15T11:23:41;1.90;99.90
8114;DHT22;4099;52.684;9.918;2024-01-15T11:28:49;1.90;99.90
8114;DHT22;4099;52.684;9.918;2024-01-15T11:33:51;1.90;99.90
8114;DHT22;4099;52.684;9.918;2024-01-15T11:38:54;2.00;99.90
8114;DHT22;4099;52.684;9.918;2024-01-15T11:43:59;2.00;99.90
8114;DHT22;4099;52.684;9.918;2024-01-15T11:49:03;2.10;99.90
8114;DHT22;4099;52.684;9.918;2024-01-15T11:54:09;2.30;99.90
8114;DHT22;4099;52.684;9.918;2024-01-15T11:59:12;2.20;99.90
8114;DHT22;4099;52.684;9.918;2024-01-15T12:04:14;2.30;99.90
8114;DHT22;4099;52.684;9.918;2024-01-15T12:09:20;2.30;99.90
8114;DHT22;4099;52.684;9.918;2024-01-15T12:14:22;2.30;99.90
8114;DHT22;4099;52.684;9.918;2024-01-15T12:19:24;2.30;99.90
8114;DHT22;4099;52.684;9.918;2024-01-15T12:24:27;2.30;99.90
8114;DHT22;4099;52.684;9.918;2024-01-15T12:29:29;2.10;99.90
8114;DHT22;4099;52.684;9.918;2024-01-15T12:34:32;1.90;99.90
8114;DHT22;4099;52.684;9.918;2024-01-15T12:39:35;1.90;99.90
8114;DHT22;4099;52.684;9.918;2024-01-15T12:44:37;1.80;99.90
8114;DHT22;4099;52.684;9.918;2024-01-15T12:49:39;1.60;99.90
8114;DHT22;4099;52.684;9.918;2024-01-15T12:54:42;1.50;99.90
8114;DHT22;4099;52.684;9.918;2024-01-15T12:59:44;1.50;99.90
8114;DHT22;4099;52.684;9.918;2024-01-15T13:04:46;1.60;99.90
8114;DHT22;4099;52.684;9.918;2024-01-15T13:09:49;1.60;99.90
8114;DHT22;4099;52.684;9.918;2024-01-15T13:14:54;1.80;99.90
8114;DHT22;4099;52.684;9.918;2024-01-15T13:19:57;1.80;99.90
8114;DHT22;4099;52.684;9.918;2024-01-15T13:25:00;1.70;99.90
8114;DHT22;4099;52.684;9.918;2024-01-15T13:30:02;1.60;99.90
8114;DHT22;4099;52.684;9.918;2024-01-15T13:35:04;1.60;99.90
8114;DHT22;4099;52.684;9.918;2024-01-15T13:40:11;1.70;99.90
8114;DHT22;4099;52.684;9.918;2024-01-15T13:45:16;1.70;99.90
8114;DHT22;4099;52.684;9.918;2024-01-15T13:50:18;1.70;99.90
8114;DHT22;4099;52.684;9.918;2024-01-15T13:55:21;1.70;99.90
8114;DHT22;4099;52.684;9.918;2024-01-15T14:00:23;1.70;99.90
8114;DHT22;4099;52.684;9.918;2024-01-15T14:05:25;1.80;99.90
8114;DHT22;4099;52.684;9.918;2024-01-15T14:10:28;1.80;99.90
8114;DHT22;4099;52.684;9.918;2024-01-15T14:15:29;1.70;99.90
8114;DHT22;4099;52.684;9.918;2024-01-15T14:20:31;1.50;99.90
8114;DHT22;4099;52.684;9.918;2024-01-15T14:25:34;1.40;99.90
8114;DHT22;4099;52.684;9.918;2024-01-15T14:30:36;1.20;99.90
8114;DHT22;4099;52.684;9.918;2024-01-15T14:35:38;1.20;99.90
8114;DHT22;4099;52.684;9.918;2024-01-15T14:40:41;1.20;99.90
8114;DHT22;4099;52.684;9.918;2024-01-15T14:45:44;1.20;99.90
8114;DHT22;4099;52.684;9.918;2024-01-15T14:50:46;1.20;99.90
8114;DHT22;4099;52.684;9.918;2024-01-15T14:55:49;1.20;99.90
8114;DHT22;4099;52.684;9.918;2024-01-15T15:00:51;1.20;99.90
8114;DHT22;4099;52.684;9.918;2024-01-15T15:05:53;1.10;99.90
8114;DHT22;4099;52.684;9.918;2024-01-15T15:10:56;1.00;99.90
8114;DHT22;4099;52.684;9.918;2024-01-15T15:15:58;0.80;99.90
8114;DHT22;4099;52.684;9.918;2024-01-15T15:21:00;0.70;99.90
8114;DHT22;4099;52.684;9.918;2024-01-15T15:26:03;0.70;99.90
8114;DHT22;4099;52.684;9.918;2024-01-15T15:31:06;0.70;99.90
8114;DHT22;4099;52.684;9.918;2024-01-15T15:36:08;0.60;99.90
8114;DHT22;4099;52.684;9.918;2024-01-15T15:41:12;0.60;99.90
8114;DHT22;4099;52.684;9.918;2024-01-15T15:46:13;0.70;99.90
8114;DHT22;4099;52.684;9.918;2024-01-15T15:51:15;0.70;99.90
8114;DHT22;4099;52.684;9.918;2024-01-15T15:56:19;0.70;99.90
8114;DHT22;4099;52.684;9.918;2024-01-15T16:07:43;0.80;99.90
8114;DHT22;4099;52.684;9.918;2024-01-15T16:12:46;0.80;99.90
8114;DHT22;4099;52.684;9.918;2024-01-15T16:17:51;0.90;99.90
8114;DHT22;4099;52.684;9.918;2024-01-15T16:22:53;0.90;99.90
8114;DHT22;4099;52.684;9.918;2024-01-15T16:27:56;0.80;99.90
8114;DHT22;4099;52.684;9.918;2024-01-15T16:32:58;0.90;99.90
8114;DHT22;4099;52.684;9.918;2024-01-15T16:38:00;0.80;99.90
8114;DHT22;4099;52.684;9.918;2024-01-15T16:43:04;0.90;99.90
8114;DHT22;4099;52.684;9.918;2024-01-15T16:48:09;0.90;99.90
8114;DHT22;4099;52.684;9.918;2024-01-15T17:31:26;0.90;99.90
8114;DHT22;4099;52.684;9.918;2024-01-15T17:36:33;0.80;99.90
8114;DHT22;4099;52.684;9.918;2024-01-15T17:41:38;0.90;99.90
8114;DHT22;4099;52.684;9.918;2024-01-15T17:46:46;0.90;99.90
8114;DHT22;4099;52.684;9.918;2024-01-15T17:51:53;0.90;99.90
8114;DHT22;4099;52.684;9.918;2024-01-15T17:57:10;0.90;99.90
8114;DHT22;4099;52.684;9.918;2024-01-15T18:02:31;0.90;99.90
8114;DHT22;4099;52.684;9.918;2024-01-15T18:07:45;1.00;99.90
8114;DHT22;4099;52.684;9.918;2024-01-15T18:12:55;1.00;99.90
8114;DHT22;4099;52.684;9.918;2024-01-15T18:18:08;1.00;99.90
8114;DHT22;4099;52.684;9.918;2024-01-15T18:23:14;0.90;99.90
8114;DHT22;4099;52.684;9.918;2024-01-15T18:28:21;0.80;99.90
8114;DHT22;4099;52.684;9.918;2024-01-15T18:33:30;0.70;99.90
8114;DHT22;4099;52.684;9.918;2024-01-15T18:38:37;0.60;99.90
8114;DHT22;4099;52.684;9.918;2024-01-15T18:43:50;0.60;99.90
8114;DHT22;4099;52.684;9.918;2024-01-15T18:49:06;0.60;99.90
8114;DHT22;4099;52.684;9.918;2024-01-15T18:59:41;0.60;99.90
8114;DHT22;4099;52.684;9.918;2024-01-15T19:05:08;0.70;99.90
8114;DHT22;4099;52.684;9.918;2024-01-15T19:10:25;0.80;99.90
8114;DHT22;4099;52.684;9.918;2024-01-15T19:15:45;0.70;99.90
8114;DHT22;4099;52.684;9.918;2024-01-15T19:20:58;0.70;99.90
8114;DHT22;4099;52.684;9.918;2024-01-15T19:26:18;0.70;99.90
8114;DHT22;4099;52.684;9.918;2024-01-15T19:31:59;0.80;99.90
8114;DHT22;4099;52.684;9.918;2024-01-15T19:37:49;0.70;99.90
8114;DHT22;4099;52.684;9.918;2024-01-15T19:42:54;0.70;99.90
8114;DHT22;4099;52.684;9.918;2024-01-15T19:54:31;0.80;99.90
8114;DHT22;4099;52.684;9.918;2024-01-15T20:00:01;0.80;99.90
8114;DHT22;4099;52.684;9.918;2024-01-15T20:06:08;0.80;99.90
8114;DHT22;4099;52.684;9.918;2024-01-15T20:11:44;0.70;99.90
8114;DHT22;4099;52.684;9.918;2024-01-15T20:16:55;0.70;99.90
8114;DHT22;4099;52.684;9.918;2024-01-15T20:22:12;0.80;99.90
8114;DHT22;4099;52.684;9.918;2024-01-15T20:27:52;0.80;99.90
8114;DHT22;4099;52.684;9.918;2024-01-15T20:33:51;0.80;99.90
8114;DHT22;4099;52.684;9.918;2024-01-15T20:39:07;0.80;99.90
8114;DHT22;4099;52.684;9.918;2024-01-15T20:44:24;0.80;99.90
8114;DHT22;4099;52.684;9.918;2024-01-15T20:49:48;0.70;99.90
8114;DHT22;4099;52.684;9.918;2024-01-15T20:55:09;0.70;99.90
8114;DHT22;4099;52.684;9.918;2024-01-15T21:18:51;0.70;99.90
8114;DHT22;4099;52.684;9.918;2024-01-15T21:24:32;0.70;99.90
8114;DHT22;4099;52.684;9.918;2024-01-15T21:29:55;0.80;99.90
8114;DHT22;4099;52.684;9.918;2024-01-15T21:35:35;0.80;99.90
8114;DHT22;4099;52.684;9.918;2024-01-15T21:40:44;0.80;99.90
8114;DHT22;4099;52.684;9.918;2024-01-15T21:46:08;0.70;99.90
8114;DHT22;4099;52.684;9.918;2024-01-15T21:51:26;0.70;99.90
8114;DHT22;4099;52.684;9.918;2024-01-15T21:56:39;0.60;99.90
8114;DHT22;4099;52.684;9.918;2024-01-15T22:02:02;0.60;99.90
8114;DHT22;4099;52.684;9.918;2024-01-15T22:08:17;0.50;99.90
8114;DHT22;4099;52.684;9.918;2024-01-15T22:13:27;0.50;99.90
8114;DHT22;4099;52.684;9.918;2024-01-15T22:19:04;0.60;99.90
8114;DHT22;4099;52.684;9.918;2024-01-15T22:24:17;0.60;99.90
8114;DHT22;4099;52.684;9.918;2024-01-15T22:29:29;0.70;99.90
8114;DHT22;4099;52.684;9.918;2024-01-15T22:34:35;0.70;99.90
8114;DHT22;4099;52.684;9.918;2024-01-15T22:39:40;0.70;99.90
8114;DHT22;4099;52.684;9.918;2024-01-15T22:45:14;0.70;99.90
8114;DHT22;4099;52.684;9.918;2024-01-15T22:50:21;0.70;99.90
8114;DHT22;4099;52.684;9.918;2024-01-15T22:55:35;0.80;99.90
8114;DHT22;4099;52.684;9.918;2024-01-15T23:00:51;0.80;99.90
8114;DHT22;4099;52.684;9.918;2024-01-15T23:05:55;0.80;99.90
8114;DHT22;4099;52.684;9.918;2024-01-15T23:11:03;0.80;99.90
8114;DHT22;4099;52.684;9.918;2024-01-15T23:16:11;0.80;99.90
8114;DHT22;4099;52.684;9.918;2024-01-15T23:26:39;0.80;99.90
8114;DHT22;4099;52.684;9.918;2024-01-15T23:31:46;0.80;99.90
8114;DHT22;4099;52.684;9.918;2024-01-15T23:36:52;0.80;99.90
8114;DHT22;4099;52.684;9.918;2024-01-15T23:41:59;0.80;99.90
8114;DHT22;4099;52.684;9.918;2024-01-15T23:47:04;0.80;99.90
8114;DHT22;4099;52.684;9.918;2024-01-15T23:52:07;0.80;99.90
8114;DHT22;4099;52.684;9.918;2024-01-15T23:57:12;0.90;99.90
